Time;durP1;ratioP1;P1;durP2;ratioP2;P2;SDS_P1;SDS_P2;PMS_P1;PMS_P2;Temp;Humidity;BMP_temperature;BMP_pressure;BME280_temperature;BME280_humidity;BME280_pressure;Samples;Min_cycle;Max_cycle;Signal;HPM_P1;HPM_P2
2022/05/31 00:00:11;;;;;;;10.88;6.82;;;;;;;10.86;78.73;101512.53;6267996;22;20049;-64
2022/05/31 00:02:37;;;;;;;9.38;7.03;;;;;;;10.84;79.11;101514.38;6269254;22;20004;-64
2022/05/31 00:05:03;;;;;;;11.13;6.85;;;;;;;10.82;79.08;101517.03;6267195;22;20020;-62
2022/05/31 00:07:28;;;;;;;7.50;6.15;;;;;;;10.81;78.88;101515.28;6269277;22;20003;-64
2022/05/31 00:09:54;;;;;;;9.25;6.63;;;;;;;10.78;78.84;101512.75;6268784;22;20022;-64
2022/05/31 00:12:19;;;;;;;12.13;7.32;;;;;;;10.77;79.37;101512.78;6241101;22;20340;-66
2022/05/31 00:14:45;;;;;;;8.52;6.93;;;;;;;10.77;79.29;101508.38;6268891;22;20424;-64
2022/05/31 00:17:10;;;;;;;9.25;7.30;;;;;;;10.78;79.31;101512.75;6267943;22;20439;-63
2022/05/31 00:19:36;;;;;;;8.52;7.32;;;;;;;10.76;79.46;101511.03;6266870;22;20424;-63
2022/05/31 00:22:08;;;;;;;12.25;8.18;;;;;;;10.74;80.25;101509.31;6267732;22;20004;-63
2022/05/31 00:24:34;;;;;;;11.25;7.65;;;;;;;10.75;80.33;101507.56;6242168;22;20011;-62
2022/05/31 00:27:00;;;;;;;13.43;8.10;;;;;;;10.74;80.38;101508.44;6268239;22;20061;-64
2022/05/31 00:29:26;;;;;;;11.32;8.10;;;;;;;10.73;80.85;101512.88;6269159;22;20011;-62
2022/05/31 00:31:53;;;;;;;10.45;7.90;;;;;;;10.74;80.75;101513.72;6267608;22;20076;-63
2022/05/31 00:34:18;;;;;;;12.32;7.85;;;;;;;10.74;80.54;101517.22;6268904;22;20087;-62
2022/05/31 00:36:46;;;;;;;12.65;8.32;;;;;;;10.75;81.03;101520.75;6267015;22;20084;-63
2022/05/31 00:39:12;;;;;;;12.35;8.70;;;;;;;10.77;80.79;101513.63;6242192;22;20427;-63
2022/05/31 00:41:39;;;;;;;9.75;8.75;;;;;;;10.76;81.06;101511.91;6268045;22;20050;-62
2022/05/31 00:44:19;;;;;;;11.18;8.25;;;;;;;10.76;81.12;101511.03;6268655;22;20003;-61
2022/05/31 00:46:58;;;;;;;15.32;9.85;;;;;;;10.74;81.04;101517.22;6268073;22;19996;-63
2022/05/31 00:49:36;;;;;;;14.38;8.32;;;;;;;10.76;81.30;101513.66;6239485;22;20000;-62
2022/05/31 00:52:20;;;;;;;15.77;8.82;;;;;;;10.74;81.26;101508.44;6266984;22;20436;-62
2022/05/31 00:54:54;;;;;;;11.88;8.05;;;;;;;10.74;81.03;101508.44;6269462;22;20018;-62
2022/05/31 00:57:19;;;;;;;13.07;8.02;;;;;;;10.74;81.27;101508.44;6267361;22;20035;-62
2022/05/31 00:59:57;;;;;;;11.27;7.80;;;;;;;10.71;81.16;101503.22;6242069;22;20007;-62
2022/05/31 01:02:23;;;;;;;11.75;7.90;;;;;;;10.70;81.13;101504.16;6268506;22;20004;-62
2022/05/31 01:04:51;;;;;;;11.95;8.45;;;;;;;10.67;81.17;101501.59;6234276;23;20416;-62
2022/05/31 01:07:17;;;;;;;11.40;8.13;;;;;;;10.63;81.14;101500.81;6236852;22;20013;-62
2022/05/31 01:09:42;;;;;;;12.38;8.15;;;;;;;10.60;81.25;101488.53;6238350;22;20007;-63
2022/05/31 01:12:08;;;;;;;10.63;7.93;;;;;;;10.59;81.80;101489.47;6234772;23;20011;-61
2022/05/31 01:14:34;;;;;;;9.13;7.88;;;;;;;10.57;81.84;101488.63;6238401;22;20112;-62
2022/05/31 01:17:08;;;;;;;12.18;8.68;;;;;;;10.55;81.74;101490.44;6237335;22;20011;-62
2022/05/31 01:22:17;;;;;;;12.90;8.60;;;;;;;10.56;81.68;101493.91;6236220;23;20015;-63
2022/05/31 01:25:10;;;;;;;13.60;7.80;;;;;;;10.52;82.04;101492.25;6235417;23;20345;-63
2022/05/31 01:27:44;;;;;;;10.30;8.00;;;;;;;10.51;82.09;101496.69;6235768;23;20035;-64
2022/05/31 01:30:10;;;;;;;9.57;7.30;;;;;;;10.53;81.84;101500.13;6235121;23;20417;-63
2022/05/31 01:32:40;;;;;;;10.98;8.02;;;;;;;10.52;82.06;101492.25;6235557;23;20429;-63
2022/05/31 01:35:14;;;;;;;11.13;8.18;;;;;;;10.52;82.09;101497.53;6234376;23;20079;-65
2022/05/31 01:37:45;;;;;;;11.30;8.20;;;;;;;10.51;82.16;101501.97;6235784;23;20000;-63
2022/05/31 01:40:16;;;;;;;10.57;8.18;;;;;;;10.49;82.20;101498.47;6234237;23;20014;-64
2022/05/31 01:42:43;;;;;;;12.35;8.23;;;;;;;10.49;81.97;101498.47;6235241;23;20487;-62
2022/05/31 01:45:42;;;;;;;10.43;7.75;;;;;;;10.46;81.83;101496.78;6234706;23;20008;-63
2022/05/31 01:48:08;;;;;;;11.85;7.53;;;;;;;10.44;81.84;101500.31;6237305;22;20024;-63
2022/05/31 01:50:34;;;;;;;10.55;6.88;;;;;;;10.44;81.93;101495.91;6234195;23;20278;-63
2022/05/31 01:53:00;;;;;;;14.40;8.25;;;;;;;10.40;82.16;101493.38;6236180;23;20035;-63
2022/05/31 01:55:26;;;;;;;10.23;7.20;;;;;;;10.39;82.06;101491.66;6234623;23;20004;-63
2022/05/31 01:57:57;;;;;;;11.30;7.55;;;;;;;10.36;82.33;101493.44;6235639;23;20008;-63
2022/05/31 02:00:23;;;;;;;11.15;7.13;;;;;;;10.35;82.22;101481.19;6234536;23;20306;-62
2022/05/31 02:02:51;;;;;;;12.23;7.22;;;;;;;10.35;82.26;101480.31;6235821;22;20015;-65
2022/05/31 02:05:17;;;;;;;8.07;6.70;;;;;;;10.33;82.25;101485.59;6266540;22;20353;-63
2022/05/31 02:07:52;;;;;;;9.82;6.47;;;;;;;10.35;82.19;101482.94;6266362;22;20004;-64
2022/05/31 02:10:17;;;;;;;7.93;6.28;;;;;;;10.34;82.44;101474.19;6267602;22;20316;-63
2022/05/31 02:12:42;;;;;;;10.63;7.28;;;;;;;10.36;82.17;101480.28;6240011;22;20069;-63
2022/05/31 02:15:08;;;;;;;7.85;6.35;;;;;;;10.40;82.30;101482.84;6266727;22;20060;-64
2022/05/31 02:17:34;;;;;;;10.20;7.00;;;;;;;10.48;81.82;101478.31;6267779;22;20016;-63
2022/05/31 02:19:59;;;;;;;10.25;6.40;;;;;;;10.53;82.01;101472.94;6266277;22;20019;-63
2022/05/31 02:22:26;;;;;;;12.52;6.90;;;;;;;10.59;81.49;101478.91;6267386;22;20006;-63
2022/05/31 02:24:51;;;;;;;9.88;5.65;;;;;;;10.63;81.24;101476.22;6267000;22;20019;-62
2022/05/31 02:27:17;;;;;;;8.75;5.97;;;;;;;10.63;80.76;101479.72;6267274;22;20023;-64
2022/05/31 02:29:42;;;;;;;8.65;5.75;;;;;;;10.65;80.73;101471.78;6266811;22;20010;-61
2022/05/31 02:32:09;;;;;;;6.00;5.35;;;;;;;10.64;80.63;101475.28;6266164;22;20033;-64
2022/05/31 02:34:38;;;;;;;6.53;5.07;;;;;;;10.64;80.33;101475.28;6265947;22;20320;-63
2022/05/31 02:37:03;;;;;;;12.68;7.00;;;;;;;10.64;80.37;101475.28;6266155;22;20189;-62
2022/05/31 02:39:29;;;;;;;9.38;6.63;;;;;;;10.66;80.64;101478.78;6267174;22;20004;-63
2022/05/31 02:41:54;;;;;;;13.52;6.72;;;;;;;10.72;80.35;101476.00;6268587;22;20007;-62
2022/05/31 02:44:20;;;;;;;10.02;6.85;;;;;;;10.81;79.88;101478.38;6266426;22;20023;-62
2022/05/31 02:46:46;;;;;;;6.82;5.85;;;;;;;10.82;79.88;101474.88;6267862;22;20027;-63
2022/05/31 02:49:11;;;;;;;9.32;5.43;;;;;;;10.89;79.78;101474.72;6265740;22;20023;-63
2022/05/31 02:51:39;;;;;;;8.95;6.05;;;;;;;10.93;79.60;101468.47;6267428;22;20424;-62
2022/05/31 02:54:05;;;;;;;6.20;5.60;;;;;;;10.91;79.48;101467.63;6239308;22;20010;-64
2022/05/31 02:56:30;;;;;;;6.43;5.28;;;;;;;10.89;79.63;101465.00;6267010;22;20003;-63
2022/05/31 02:58:56;;;;;;;6.30;5.70;;;;;;;10.92;79.45;101466.69;6267672;22;20061;-62
2022/05/31 03:01:25;;;;;;;11.50;6.20;;;;;;;10.99;79.48;101458.59;6266262;22;20004;-64
2022/05/31 03:03:51;;;;;;;7.50;5.72;;;;;;;10.98;79.19;101470.06;6267166;22;20016;-62
2022/05/31 03:06:17;;;;;;;10.73;5.75;;;;;;;11.01;79.17;101466.47;6264401;22;20011;-64
2022/05/31 03:08:43;;;;;;;5.93;5.00;;;;;;;11.01;79.50;101466.47;6267259;22;19996;-64
2022/05/31 03:11:14;;;;;;;7.35;5.68;;;;;;;11.01;78.77;101461.19;6265474;22;20049;-63
2022/05/31 03:13:40;;;;;;;6.40;4.90;;;;;;;11.04;78.76;101463.75;6267498;22;20045;-62
2022/05/31 03:16:05;;;;;;;7.97;4.75;;;;;;;11.04;78.66;101461.13;6239578;22;20007;-63
2022/05/31 03:18:38;;;;;;;6.88;5.30;;;;;;;11.14;78.24;101467.03;6240800;22;20408;-62
2022/05/31 03:21:08;;;;;;;6.95;4.63;;;;;;;11.13;78.45;101465.28;6265446;22;20431;-62
2022/05/31 03:23:37;;;;;;;5.07;4.57;;;;;;;11.21;77.89;101465.09;6267280;22;19999;-62
2022/05/31 03:26:05;;;;;;;5.85;4.93;;;;;;;11.21;77.95;101462.47;6266932;22;20028;-62
2022/05/31 03:28:32;;;;;;;7.05;5.32;;;;;;;11.23;77.70;101458.03;6265964;22;20011;-64
2022/05/31 03:30:57;;;;;;;10.50;4.82;;;;;;;11.28;77.41;101458.75;6241485;22;20000;-63
2022/05/31 03:33:22;;;;;;;6.70;5.32;;;;;;;11.30;77.26;101458.69;6265977;22;20006;-62
2022/05/31 03:35:48;;;;;;;9.10;6.18;;;;;;;11.30;77.34;101461.34;6214448;22;20003;-63
2022/05/31 03:38:13;;;;;;;8.55;4.72;;;;;;;11.36;77.02;101458.53;6269079;22;20003;-64
2022/05/31 03:40:56;;;;;;;8.65;4.88;;;;;;;11.45;75.95;101458.31;6269512;22;20484;-63
2022/05/31 03:43:26;;;;;;;9.15;5.88;;;;;;;11.43;75.78;101454.81;6268878;22;20008;-64
2022/05/31 03:45:52;;;;;;;8.07;5.20;;;;;;;11.45;75.98;101450.38;6267118;22;20011;-63
2022/05/31 03:48:17;;;;;;;5.30;4.80;;;;;;;11.49;75.45;101451.16;6267536;22;20475;-63
2022/05/31 03:50:44;;;;;;;9.05;5.78;;;;;;;11.53;75.18;101447.50;6265374;22;20455;-63
2022/05/31 03:53:12;;;;;;;10.00;5.13;;;;;;;11.54;75.21;101453.66;6267227;22;20061;-62
2022/05/31 03:55:42;;;;;;;7.82;5.15;;;;;;;11.61;74.97;101448.16;6266539;22;20027;-63
2022/05/31 03:58:08;;;;;;;14.43;5.45;;;;;;;11.63;74.96;101451.63;6266932;22;20010;-62
2022/05/31 04:00:33;;;;;;;7.88;5.25;;;;;;;11.64;75.17;101452.50;6268215;22;20011;-63
2022/05/31 04:02:59;;;;;;;11.57;6.13;;;;;;;11.73;74.70;101449.59;6268696;22;20901;-63
2022/05/31 04:05:24;;;;;;;10.20;5.55;;;;;;;11.82;74.54;101450.22;6268305;22;20011;-63
2022/05/31 04:07:51;;;;;;;8.10;5.80;;;;;;;11.71;75.00;101450.56;6269368;22;19996;-63
2022/05/31 04:10:16;;;;;;;10.60;5.88;;;;;;;11.69;75.19;101449.72;6268960;22;20000;-62
2022/05/31 04:12:42;;;;;;;6.20;5.15;;;;;;;11.73;75.29;101446.06;6270961;22;20054;-63
2022/05/31 04:15:07;;;;;;;7.25;5.20;;;;;;;11.71;75.00;101454.03;6268407;22;20028;-63
2022/05/31 04:17:33;;;;;;;8.63;6.38;;;;;;;11.72;75.12;101450.50;6269551;22;20026;-63
2022/05/31 04:19:58;;;;;;;8.93;5.40;;;;;;;11.78;75.09;101441.53;6268384;22;20324;-63
2022/05/31 04:22:23;;;;;;;5.93;4.78;;;;;;;11.83;74.96;101444.06;6267936;22;20094;-63
2022/05/31 04:24:53;;;;;;;10.23;6.05;;;;;;;11.82;74.75;101435.25;6268872;22;20082;-63
2022/05/31 04:27:19;;;;;;;6.60;5.43;;;;;;;11.84;74.76;101446.66;6267687;22;20444;-62
2022/05/31 04:29:44;;;;;;;6.72;5.32;;;;;;;11.88;74.24;101440.34;6268986;22;20000;-62
2022/05/31 04:32:10;;;;;;;7.47;5.68;;;;;;;11.88;74.25;101445.63;6268878;22;20041;-63
2022/05/31 04:34:36;;;;;;;8.63;5.30;;;;;;;11.96;73.97;101447.19;6267243;22;20008;-63
2022/05/31 04:37:01;;;;;;;8.25;5.35;;;;;;;11.95;73.90;101440.19;6268595;22;20336;-63
2022/05/31 04:39:26;;;;;;;8.95;5.38;;;;;;;12.03;73.98;101447.84;6268311;22;20010;-64
2022/05/31 04:41:52;;;;;;;10.48;5.90;;;;;;;12.09;73.43;101442.41;6267906;22;20161;-63
2022/05/31 04:44:18;;;;;;;7.65;5.68;;;;;;;12.09;72.91;101440.66;6267767;22;20000;-63
2022/05/31 04:46:44;;;;;;;12.43;6.85;;;;;;;12.12;73.61;101439.69;6268523;22;20000;-63
2022/05/31 04:49:09;;;;;;;7.65;5.90;;;;;;;12.07;73.90;101437.19;6266698;22;20011;-64
2022/05/31 04:51:35;;;;;;;9.63;6.32;;;;;;;12.13;74.34;101439.63;6268359;22;20046;-62
2022/05/31 04:54:02;;;;;;;10.13;7.28;;;;;;;12.21;74.76;101446.44;6267980;22;20007;-62
2022/05/31 04:56:27;;;;;;;10.00;6.53;;;;;;;12.25;74.93;101445.44;6268813;22;20042;-63
2022/05/31 04:58:53;;;;;;;11.80;6.85;;;;;;;12.29;75.07;101440.94;6267740;22;20031;-62
2022/05/31 05:01:19;;;;;;;10.55;6.95;;;;;;;12.32;74.84;101439.06;6269167;22;20420;-62
2022/05/31 05:03:45;;;;;;;9.05;5.97;;;;;;;12.35;75.17;101435.47;6267009;22;20019;-62
2022/05/31 05:06:12;;;;;;;8.27;5.80;;;;;;;12.52;74.55;101440.19;6267570;22;20459;-63
2022/05/31 05:08:38;;;;;;;9.60;6.28;;;;;;;12.48;75.07;101433.28;6266776;22;19988;-62
2022/05/31 05:11:05;;;;;;;12.70;6.45;;;;;;;12.59;74.52;101436.47;6268971;22;20010;-62
2022/05/31 05:13:31;;;;;;;8.48;6.68;;;;;;;12.51;74.34;101431.41;6268379;22;20008;-63
2022/05/31 05:15:58;;;;;;;8.30;6.30;;;;;;;12.61;72.65;101429.31;6269017;22;20084;-63
2022/05/31 05:18:23;;;;;;;10.77;5.97;;;;;;;12.62;71.68;101427.56;6267294;22;20003;-63
2022/05/31 05:20:49;;;;;;;11.40;5.78;;;;;;;12.68;71.39;101426.47;6266671;22;20031;-62
2022/05/31 05:23:14;;;;;;;8.32;6.00;;;;;;;12.75;70.73;101420.06;6267385;22;20003;-62
2022/05/31 05:25:40;;;;;;;8.27;5.75;;;;;;;12.74;70.24;101426.28;6240690;22;20432;-63
2022/05/31 05:30:51;;;;;;;15.25;5.50;;;;;;;12.93;69.79;101415.94;6204617;22;20012;-63
2022/05/31 05:33:18;;;;;;;9.55;5.38;;;;;;;13.07;69.15;101420.75;6266528;22;20073;-64
2022/05/31 05:35:43;;;;;;;8.60;5.75;;;;;;;13.20;68.71;101420.28;6214690;22;20008;-62
2022/05/31 05:38:09;;;;;;;13.38;5.70;;;;;;;13.39;68.44;101415.19;6266978;22;20398;-62
2022/05/31 05:40:35;;;;;;;8.55;6.00;;;;;;;13.52;68.29;101416.50;6266506;22;20003;-64
2022/05/31 05:43:00;;;;;;;7.45;5.55;;;;;;;13.67;67.92;101414.22;6268281;22;20329;-62
2022/05/31 05:45:25;;;;;;;6.57;5.40;;;;;;;13.93;67.37;101403.56;6267030;22;20273;-62
2022/05/31 05:47:51;;;;;;;10.05;5.30;;;;;;;14.10;66.07;101406.41;6268209;22;20007;-62
2022/05/31 05:50:16;;;;;;;10.85;5.80;;;;;;;14.13;65.22;101411.56;6265186;22;20003;-61
2022/05/31 05:52:46;;;;;;;10.68;5.38;;;;;;;14.09;65.28;101415.25;6266843;22;20082;-62
2022/05/31 05:55:12;;;;;;;7.85;5.30;;;;;;;14.33;64.96;101399.28;6265866;22;20007;-62
2022/05/31 05:57:37;;;;;;;9.18;5.30;;;;;;;14.51;64.29;101415.38;6266635;22;20105;-63
2022/05/31 06:00:03;;;;;;;8.45;5.13;;;;;;;14.62;63.05;101406.97;6266465;22;20212;-63
2022/05/31 06:02:31;;;;;;;9.57;5.28;;;;;;;14.82;63.77;101406.16;6267721;22;20015;-62
2022/05/31 06:05:09;;;;;;;7.78;4.63;;;;;;;15.06;61.73;101410.47;6239013;22;20008;-62
2022/05/31 06:07:42;;;;;;;7.88;4.47;;;;;;;15.38;61.46;101406.38;6266254;22;20142;-63
2022/05/31 06:10:16;;;;;;;7.03;5.10;;;;;;;15.38;61.46;101403.72;6266491;22;20004;-62
2022/05/31 06:12:44;;;;;;;14.32;4.60;;;;;;;15.56;60.25;101403.78;6240278;22;20328;-62
2022/05/31 06:15:20;;;;;;;8.43;4.70;;;;;;;15.73;59.47;101399.50;6266456;22;20031;-61
2022/05/31 06:17:46;;;;;;;7.97;5.20;;;;;;;15.88;59.37;101398.78;6266284;22;20031;-63
2022/05/31 06:20:12;;;;;;;7.55;4.72;;;;;;;15.97;59.87;101404.63;6265582;22;20008;-62
2022/05/31 06:22:38;;;;;;;8.50;4.78;;;;;;;15.84;59.64;101396.34;6266811;22;20515;-61
2022/05/31 06:25:04;;;;;;;10.10;4.90;;;;;;;15.85;59.90;101401.59;6267008;22;20003;-61
2022/05/31 06:27:30;;;;;;;7.13;4.40;;;;;;;15.89;60.05;101407.59;6268311;22;20034;-61
2022/05/31 06:29:55;;;;;;;7.18;4.75;;;;;;;16.19;58.40;101400.94;6267042;22;20000;-61
2022/05/31 06:32:20;;;;;;;8.63;4.68;;;;;;;15.97;57.56;101396.66;6266016;22;20004;-62
2022/05/31 06:34:46;;;;;;;8.70;4.80;;;;;;;15.92;57.25;101405.66;6265637;22;20011;-62
2022/05/31 06:37:14;;;;;;;6.63;4.90;;;;;;;15.92;58.26;101395.03;6266672;22;20003;-63
2022/05/31 06:39:41;;;;;;;9.88;5.20;;;;;;;16.00;57.88;101396.50;6266704;22;20011;-63
2022/05/31 06:42:07;;;;;;;7.70;4.90;;;;;;;16.02;57.70;101395.47;6266114;22;20011;-61
2022/05/31 06:44:34;;;;;;;9.07;4.57;;;;;;;16.15;57.03;101398.44;6267383;22;20015;-62
2022/05/31 06:46:59;;;;;;;9.27;4.57;;;;;;;16.17;57.45;101403.66;6267877;22;20003;-62
2022/05/31 06:49:25;;;;;;;9.02;4.72;;;;;;;16.19;58.08;101406.25;6266348;22;20010;-62
2022/05/31 06:57:18;;;;;;;6.88;4.80;;;;;;;16.56;55.73;101399.13;6266537;22;20027;-63
2022/05/31 06:59:43;;;;;;;8.30;3.95;;;;;;;16.63;55.68;101400.53;6267111;22;20012;-62
2022/05/31 07:02:10;;;;;;;6.15;4.38;;;;;;;16.72;53.96;101404.50;6266315;22;20071;-62
2022/05/31 07:04:36;;;;;;;6.28;3.63;;;;;;;16.85;54.81;101407.41;6265092;22;20008;-62
2022/05/31 07:07:01;;;;;;;9.35;4.35;;;;;;;17.02;53.29;101409.19;6239700;22;20061;-61
2022/05/31 07:09:27;;;;;;;10.38;4.13;;;;;;;16.96;53.52;101405.97;6240624;22;20367;-62
2022/05/31 07:11:57;;;;;;;5.47;3.75;;;;;;;17.02;53.19;101406.53;6266062;22;19988;-63
2022/05/31 07:14:27;;;;;;;12.35;4.05;;;;;;;16.95;52.50;101404.25;6238613;22;20034;-63
2022/05/31 07:16:52;;;;;;;;;;;;;;;16.90;51.67;101401.84;6266792;22;20046;-63
2022/05/31 07:19:17;;;;;;;9.25;4.00;;;;;;;16.98;52.46;101404.09;6238173;22;19961;-64
2022/05/31 07:21:43;;;;;;;4.97;3.80;;;;;;;16.95;54.05;101405.13;6265867;22;20444;-62
2022/05/31 07:24:09;;;;;;;8.57;3.92;;;;;;;16.76;55.44;101399.88;6265571;22;20014;-62
2022/05/31 07:26:34;;;;;;;11.07;3.90;;;;;;;16.69;56.44;101399.34;6265912;22;20075;-62
2022/05/31 07:28:59;;;;;;;8.63;4.03;;;;;;;16.59;55.21;101403.41;6266791;22;20034;-63
2022/05/31 07:31:26;;;;;;;7.57;4.20;;;;;;;16.61;54.45;101401.50;6266521;22;20050;-63
2022/05/31 07:33:51;;;;;;;6.38;4.72;;;;;;;16.45;56.82;101406.75;6265901;22;20007;-63
2022/05/31 07:36:19;;;;;;;9.07;5.10;;;;;;;16.53;58.67;101399.25;6265680;22;20082;-66
2022/05/31 07:38:44;;;;;;;8.48;5.38;;;;;;;16.49;59.14;101400.34;6265711;22;20458;-63
2022/05/31 07:41:10;;;;;;;7.32;4.72;;;;;;;16.75;57.69;101407.03;6266868;22;20032;-62
2022/05/31 07:43:35;;;;;;;11.90;4.20;;;;;;;16.80;56.90;101398.81;6268522;22;20007;-63
2022/05/31 07:46:10;;;;;;;12.60;4.18;;;;;;;16.69;53.39;101396.69;6269100;22;20703;-63
2022/05/31 07:48:37;;;;;;;9.60;4.55;;;;;;;16.59;54.64;101400.75;6267994;22;20348;-62
2022/05/31 07:51:02;;;;;;;7.97;4.68;;;;;;;16.85;55.09;101396.75;6268598;22;20065;-62
2022/05/31 07:53:28;;;;;;;7.65;4.53;;;;;;;16.91;55.27;101399.09;6269483;22;20003;-62
2022/05/31 07:55:57;;;;;;;7.25;4.75;;;;;;;16.70;57.27;101394.91;6268671;22;20375;-65
2022/05/31 07:58:32;;;;;;;11.43;5.22;;;;;;;16.82;56.66;101394.25;6267796;22;20375;-63
2022/05/31 08:01:06;;;;;;;8.13;4.88;;;;;;;16.93;56.25;101394.56;6269141;22;20308;-63
2022/05/31 08:03:32;;;;;;;7.18;4.28;;;;;;;17.04;55.73;101393.16;6266885;22;20011;-62
2022/05/31 08:06:01;;;;;;;8.10;4.22;;;;;;;16.92;53.65;101395.47;6268451;22;20003;-62
2022/05/31 08:08:27;;;;;;;;;;;;;;;16.98;52.44;101388.13;6269556;22;20000;-62
2022/05/31 08:10:52;;;;;;;7.55;4.40;;;;;;;17.04;52.31;101393.16;6267276;22;19907;-62
2022/05/31 08:13:17;;;;;;;7.15;3.65;;;;;;;17.12;52.35;101390.09;6268673;22;20007;-62
2022/05/31 08:15:43;;;;;;;5.43;3.53;;;;;;;17.35;51.26;101380.00;6267485;22;20007;-62
2022/05/31 08:18:08;;;;;;;10.82;4.53;;;;;;;17.18;51.69;101384.44;6267929;22;20000;-61
2022/05/31 08:20:33;;;;;;;7.70;4.30;;;;;;;17.05;51.50;101390.41;6241063;22;20006;-61
2022/05/31 08:23:01;;;;;;;8.25;4.07;;;;;;;17.21;50.95;101381.63;6269187;22;20022;-62
2022/05/31 08:25:26;;;;;;;7.90;3.55;;;;;;;17.20;50.58;101381.69;6269150;22;20444;-62
2022/05/31 08:27:52;;;;;;;7.18;4.07;;;;;;;17.36;50.39;101382.59;6269468;22;20000;-61
2022/05/31 08:30:17;;;;;;;8.75;3.58;;;;;;;17.55;50.54;101386.94;6267497;22;20375;-63
2022/05/31 08:32:43;;;;;;;10.00;3.70;;;;;;;17.56;50.00;101383.31;6269781;22;20079;-61
2022/05/31 08:35:08;;;;;;;14.73;4.10;;;;;;;17.40;50.10;101381.47;6266389;22;20004;-61
2022/05/31 08:37:34;;;;;;;9.70;3.00;;;;;;;17.66;46.73;101381.84;6268526;22;20031;-61
2022/05/31 08:40:00;;;;;;;7.35;2.03;;;;;;;17.58;42.08;101381.41;6267281;22;19992;-62
2022/05/31 08:42:48;;;;;;;6.45;2.17;;;;;;;17.70;44.26;101376.38;6267892;22;20387;-62
2022/05/31 08:45:31;;;;;;;5.20;2.60;;;;;;;17.88;45.79;101374.47;6268735;22;20004;-62
2022/05/31 08:48:33;;;;;;;4.13;2.08;;;;;;;17.77;43.98;101377.72;6267588;22;20006;-61
2022/05/31 08:56:56;;;;;;;5.25;2.67;;;;;;;17.85;42.50;101375.47;6267017;22;20106;-62
2022/05/31 08:56:59;;;;;;;4.63;2.50;;;;;;;17.60;45.16;101384.84;6244448;22;20035;-62
2022/05/31 08:59:58;;;;;;;8.00;3.00;;;;;;;17.76;42.93;101373.34;6243476;22;20006;-64
2022/05/31 09:02:30;;;;;;;;;;;;;;;17.67;44.08;101367.56;6267593;22;20030;-62
2022/05/31 09:05:07;;;;;;;5.82;2.72;;;;;;;17.94;43.72;101366.97;6265325;22;19911;-62
2022/05/31 09:07:38;;;;;;;7.38;3.15;;;;;;;17.96;43.62;101368.69;6215884;22;20000;-62
2022/05/31 09:10:07;;;;;;;7.60;2.53;;;;;;;18.31;43.53;101368.50;6239015;22;20011;-64
2022/05/31 09:12:44;;;;;;;8.43;2.30;;;;;;;18.43;42.07;101373.09;6267495;22;20059;-62
2022/05/31 09:15:13;;;;;;;6.55;3.03;;;;;;;18.37;41.82;101361.94;6266242;22;20007;-62
2022/05/31 09:17:59;;;;;;;6.65;3.40;;;;;;;18.37;42.99;101356.63;6267663;22;20089;-62
2022/05/31 09:20:32;;;;;;;8.57;3.33;;;;;;;18.57;42.49;101363.41;6239097;22;20004;-62
2022/05/31 09:22:58;;;;;;;5.82;3.00;;;;;;;18.49;42.84;101360.38;6240923;22;20007;-62
2022/05/31 09:25:24;;;;;;;8.13;3.13;;;;;;;18.66;41.09;101357.53;6238683;22;20007;-61
2022/05/31 09:27:50;;;;;;;7.82;2.97;;;;;;;18.99;41.21;101357.41;6240526;22;20004;-61
2022/05/31 09:30:27;;;;;;;8.68;2.40;;;;;;;19.11;39.75;101354.00;6267440;22;20004;-61
2022/05/31 09:33:08;;;;;;;6.38;2.83;;;;;;;19.25;38.58;101353.13;6239992;22;20003;-62
2022/05/31 09:35:51;;;;;;;8.32;3.25;;;;;;;19.42;39.02;101349.38;6267337;22;20007;-62
2022/05/31 09:38:34;;;;;;;5.03;2.70;;;;;;;19.88;36.71;101351.88;6267570;22;20004;-62
2022/05/31 09:41:08;;;;;;;5.90;3.38;;;;;;;19.93;35.96;101352.44;6241167;22;20010;-62
2022/05/31 09:43:51;;;;;;;7.30;3.05;;;;;;;19.68;37.25;101346.88;6240805;22;20004;-62
2022/05/31 09:46:29;;;;;;;5.40;2.50;;;;;;;19.90;35.76;101350.78;6240027;22;20034;-62
2022/05/31 09:48:56;;;;;;;7.20;2.08;;;;;;;19.80;36.07;101350.56;6239376;22;20004;-60
2022/05/31 09:51:26;;;;;;;4.13;1.80;;;;;;;20.07;33.17;101354.22;6240449;22;20081;-61
2022/05/31 09:59:24;;;;;;;4.38;2.53;;;;;;;20.73;32.38;101333.78;6243823;22;20452;-60
2022/05/31 10:01:50;;;;;;;4.45;2.38;;;;;;;20.82;32.60;101338.50;6239210;22;20004;-60
2022/05/31 10:04:30;;;;;;;3.72;2.60;;;;;;;20.82;32.67;101341.16;6265184;22;20142;-60
2022/05/31 10:06:59;;;;;;;3.65;2.33;;;;;;;21.01;33.50;101337.25;6267355;22;20007;-61
2022/05/31 10:09:38;;;;;;;9.13;2.92;;;;;;;20.99;33.65;101329.31;6265712;22;20003;-62
2022/05/31 10:12:15;;;;;;;6.43;3.70;;;;;;;21.15;33.14;101325.53;6266984;22;20008;-60
2022/05/31 10:14:45;;;;;;;4.35;2.90;;;;;;;21.16;31.89;101330.78;6239170;22;20066;-59
2022/05/31 10:17:30;;;;;;;4.13;3.03;;;;;;;20.73;33.80;101328.41;6266891;22;20007;-60
2022/05/31 10:20:19;;;;;;;3.88;2.90;;;;;;;21.05;35.15;101330.69;6265441;22;19999;-60
2022/05/31 10:22:57;;;;;;;6.47;3.45;;;;;;;21.50;37.02;101326.63;6267129;22;20004;-60
2022/05/31 10:25:27;;;;;;;11.57;4.15;;;;;;;21.59;37.10;101326.81;6266426;22;20071;-61
2022/05/31 10:28:05;;;;;;;8.00;3.85;;;;;;;21.53;37.01;101326.41;6267213;22;20030;-59
2022/05/31 10:30:32;;;;;;;6.47;3.50;;;;;;;21.59;36.21;101326.81;6239704;22;20014;-61
2022/05/31 10:33:10;;;;;;;4.47;3.78;;;;;;;21.26;35.65;101324.78;6267701;22;20281;-61
2022/05/31 10:35:39;;;;;;;9.10;4.00;;;;;;;21.39;36.93;101327.41;6266347;22;20018;-60
2022/05/31 10:38:31;;;;;;;5.78;3.47;;;;;;;21.25;35.47;101331.09;6266655;22;20003;-59
2022/05/31 10:40:59;;;;;;;12.02;4.43;;;;;;;21.01;36.14;101321.19;6252464;22;20004;-60
2022/05/31 10:43:25;;;;;;;7.18;3.67;;;;;;;20.95;35.35;101322.47;6266284;22;20608;-60
2022/05/31 10:45:52;;;;;;;6.82;3.50;;;;;;;21.33;35.25;101321.53;6266263;22;20487;-60
2022/05/31 10:48:18;;;;;;;5.13;3.58;;;;;;;21.17;33.85;101315.56;6265740;22;20004;-60
2022/05/31 10:51:00;;;;;;;7.15;3.55;;;;;;;21.03;34.59;101320.09;6265610;22;20003;-61
2022/05/31 10:54:10;;;;;;;6.40;3.08;;;;;;;21.12;33.28;101318.56;6267093;22;20014;-61
2022/05/31 10:56:50;;;;;;;5.63;3.38;;;;;;;21.13;33.78;101320.28;6209026;22;20043;-60
2022/05/31 10:59:18;;;;;;;6.85;4.05;;;;;;;20.68;34.28;101321.56;6239793;22;20007;-60
2022/05/31 11:01:50;;;;;;;7.57;3.95;;;;;;;20.48;33.91;101325.63;6239592;22;20399;-62
2022/05/31 11:04:44;;;;;;;8.43;4.35;;;;;;;20.30;34.91;101327.75;6237736;22;20036;-60
2022/05/31 11:07:18;;;;;;;9.43;3.70;;;;;;;19.91;38.60;101328.47;6266090;22;20003;-60
2022/05/31 11:12:56;;;;;;;9.70;3.60;;;;;;;19.79;39.35;101345.31;6266341;22;20479;-61
2022/05/31 11:15:50;;;;;;;12.77;4.20;;;;;;;19.56;39.23;101353.00;6238952;22;20027;-61
2022/05/31 11:18:53;;;;;;;6.32;3.80;;;;;;;19.31;38.92;101352.75;6268471;22;20049;-63
2022/05/31 11:21:37;;;;;;;5.68;3.70;;;;;;;19.01;38.78;101352.81;6268190;22;20302;-63
2022/05/31 11:24:22;;;;;;;7.28;3.70;;;;;;;18.64;45.06;101356.78;6240965;22;20035;-63
2022/05/31 11:27:19;;;;;;;7.15;4.25;;;;;;;18.60;42.19;101347.22;6241052;22;20428;-61
2022/05/31 11:29:59;;;;;;;7.55;4.50;;;;;;;18.38;47.55;101352.97;6269147;22;20007;-62
2022/05/31 11:32:30;;;;;;;7.35;4.20;;;;;;;18.50;43.79;101351.41;6268454;22;20075;-61
2022/05/31 11:35:13;;;;;;;9.05;3.70;;;;;;;18.46;45.56;101345.41;6268191;22;20320;-62
2022/05/31 11:37:50;;;;;;;5.55;3.58;;;;;;;18.65;45.13;101347.81;6241851;22;20254;-61
2022/05/31 11:40:26;;;;;;;8.15;2.60;;;;;;;18.82;42.92;101345.94;6267959;22;20008;-62
2022/05/31 11:42:58;;;;;;;6.10;2.88;;;;;;;19.08;43.69;101346.16;6268199;22;20004;-62
2022/05/31 11:45:38;;;;;;;7.78;2.92;;;;;;;19.33;41.52;101344.66;6240668;22;20031;-62
2022/05/31 11:48:15;;;;;;;7.93;2.45;;;;;;;19.79;39.47;101339.97;6267007;22;20004;-63
2022/05/31 11:51:11;;;;;;;3.78;2.13;;;;;;;20.35;39.89;101346.16;6267941;22;20019;-62
2022/05/31 11:54:04;;;;;;;3.72;1.90;;;;;;;20.90;35.53;101346.91;6267280;22;20008;-62
2022/05/31 11:56:39;;;;;;;4.32;2.05;;;;;;;20.94;34.36;101337.69;6268976;22;20105;-63
2022/05/31 11:59:17;;;;;;;3.60;2.08;;;;;;;21.25;35.41;101344.50;6240042;22;20014;-63